Anza Borrego Desert Research Center, California Weather observations

Data are for 10 minute period ending at time listed.
 Day   Time   Solar   Ave.   Ave.  Ave.  Vector  Max.   Baro.   Total    
  of    of     Rad.   Air    Rel.  Wind   Wind   Wind  Press.  Precip.   
Year   Day            Temp.  Hum.  Speed  Dir.   Gust                    
2015   (PST)  Kw/m2    F      %     mph   deg.    mph    mb.     in.     
-------------------------------------------------------------------------
 116   10:10   0.88   75.1    22    6.4    94    12.5   501.9    0.00 
 116   10:20   0.91   76.1    21    3.8   104     8.0   502.0    0.00 
 116   10:30   0.92   77.0    21    3.1    11     6.6   502.0    0.00 
 116   10:40   0.94   76.8    21    7.5    94    12.9   502.0    0.00 
 116   10:50   0.96   76.5    21    7.0    64    11.5   502.0    0.00 
 116   11:00   0.94   76.7    21    5.3    60    11.0   502.0    0.00 
 116   11:10   0.94   77.2    21    6.6    42    10.3   502.0    0.00 
 116   11:20   0.97   78.8    20    3.8   148     8.7   502.0    0.00 
 116   11:30   0.99   79.1    20    5.4    24    10.4   502.0    0.00 
 116   11:40   0.97   79.6    20    5.3    90    10.5   502.0    0.00 
 116   11:50   0.96   78.6    21    8.3    96    14.7   502.0    0.00 
 116   12:00   0.96   79.1    20    5.3    37    11.1   502.0    0.00 
 116   12:10   0.98   79.5    20    6.1   350    14.4   502.0    0.00 
 116   12:20   0.96   79.6    20    6.7    99    12.4   502.0    0.00 
 116   12:30   0.94   80.0    21    6.2    71     9.6   502.0    0.00 
 116   12:40   0.92   80.7    21    3.3   163     7.7   502.0    0.00 
 116   12:50   0.97   82.7    19    6.1   108    12.1   502.0    0.00 
 116   13:00   0.92   81.3    20    5.9    66    12.6   502.0    0.00 
 116   13:10   0.55   80.3    20    7.1    92    12.5   502.0    0.00 
 116   13:20   0.57   79.7    24    6.2   133    11.2   502.0    0.00 
 116   13:30   0.92   80.8    25    6.6   176    14.7   502.0    0.00 
 116   13:40   0.88   82.6    24    6.3   196    14.8   502.0    0.00 
 116   13:50   0.88   82.2    24    6.8   201    14.9   502.0    0.00 
 116   14:00   0.88   82.9    23    5.5   184    13.2   502.0    0.00 
 116   14:10   0.80   82.6    23    6.2   142    13.8   502.0    0.00 
 116   14:20   0.76   82.9    23    7.6   228    12.9   502.1    0.00 
 116   14:30   0.51   82.0    23    3.6   185     6.1   502.0    0.00 
 116   14:40   0.63   82.5    23    3.6   226     7.3   502.0    0.00 
 116   14:50   0.71   82.6    23    3.4    44     7.9   502.0    0.00 
 116   15:00   0.68   83.4    22    4.2    35     9.3   502.1    0.00 
 116   15:10   0.62   83.6    22    3.3    60     7.5   502.1    0.00 
 116   15:20   0.59   83.4    22    7.5   276    12.4   502.1    0.00 
 116   15:30   0.56   82.7    23    8.5   280    16.8   502.1    0.00 
 116   15:40   0.56   82.4    25   13.3   240    18.9   502.0    0.00 
 116   15:50   0.50   81.8    26   12.8   240    19.6   502.0    0.00 
 116   16:00   0.47   81.5    27   15.7   230    22.4   502.0    0.00 
 116   16:10   0.38   80.5    29   16.7   240    22.0   502.0    0.00 
 116   16:20   0.33   79.5    31   17.9   231    24.9   502.0    0.00 
 116   16:30   0.32   79.7    30   13.4   249    21.5   502.0    0.00 
 116   16:40   0.31   80.6    29   11.0   268    14.2   502.0    0.00 
 116   16:50   0.24   80.3    29    8.0   288    11.5   502.0    0.00 
 116   17:00   0.25   80.9    27    7.0   314    10.6   502.0    0.00 
 116   17:10   0.22   80.8    26    5.5   315    11.7   502.0    0.00 
 116   17:20   0.10   80.7    25    6.3   325    12.7   502.0    0.00 
 116   17:30   0.03   79.0    25    6.5   322    11.4   502.0    0.00 
 116   17:40   0.03   78.7    25    7.1   335    17.1   502.0    0.00 
 116   17:50   0.03   78.2    26   10.2   336    16.1   502.0    0.00 
 116   18:00   0.03   78.2    26    9.1   330    15.8   501.9    0.00 
 116   18:10   0.02   77.8    26   10.1   335    16.4   501.9    0.00 
 116   18:20   0.01   77.7    26    9.9   318    17.5   501.8    0.00 
 116   18:30   0.00   77.4    26   11.8   317    18.3   501.8    0.00 
 116   18:40   0.00   77.0    28   10.9   310    16.1   501.8    0.00 
 116   18:50   0.00   76.7    27    8.3   306    12.7   501.8    0.00 
 116   19:00   0.00   76.3    28    9.1   306    12.9   501.8    0.00 
 116   19:10   0.00   76.2    27    8.6   308    15.6   501.8    0.00 
 116   19:20   0.00   76.4    26    8.3   308    15.1   501.8    0.00 
 116   19:30   0.00   76.6    25    8.5   312    14.0   501.8    0.00 
 116   19:40   0.00   76.8    24    5.7   307    10.4   501.8    0.00 
 116   19:50   0.00   75.9    28    3.2   148     8.7   501.8    0.00 
 116   20:00   0.00   74.2    30    2.7   147     6.1   501.8    0.00 
 116   20:10   0.00   73.9    31    1.8   102     5.3   501.8    0.00 
 116   20:20   0.00   73.5    32    7.4   173    10.3   501.8    0.00 
 116   20:30   0.00   73.1    33    9.1   172    12.9   501.8    0.00 
 116   20:40   0.00   73.2    34    7.8   159    12.5   501.8    0.00 
 116   20:50   0.00   73.1    34    4.7   141     7.1   501.8    0.00 
 116   21:00   0.00   72.5    34    2.1   146     4.2   501.8    0.00 
 116   21:10   0.00   70.8    35    2.0   266     5.5   501.8    0.00 
 116   21:20   0.00   69.2    35    1.2   223     2.9   501.8    0.00 
 116   21:30   0.00   68.7    34    1.3   126     3.8   501.8    0.00 
 116   21:40   0.00   67.6    33    2.7   238     3.3   501.8    0.00 
 116   21:50   0.00   68.2    35    3.5   298     6.6   501.8    0.00 
 116   22:00   0.00   68.8    36    0.7   288     2.6   501.8    0.00 
 116   22:10   0.00   66.8    36    3.0   223     4.1   501.8    0.00 
 116   22:20   0.00   65.6    36    3.5   247     5.0   501.8    0.00 
 116   22:30   0.00   65.9    36    3.3   214     4.5   501.8    0.00 
 116   22:40   0.00   64.2    37    3.2   238     5.2   501.8    0.00 
 116   22:50   0.00   63.3    37    1.8   300     3.1   501.8    0.00 
 116   23:00   0.00   64.6    40    3.5   348     5.7   501.8    0.00 
 116   23:10   0.00   64.5    40    1.7   314     2.8   501.8    0.00 
 116   23:20   0.00   64.9    39    1.6   181     4.8   501.8    0.00 
 116   23:30   0.00   63.9    39    2.8   188     3.9   501.8    0.00 
 116   23:40   0.00   63.4    39    2.7   220     3.7   501.8    0.00 
 116   23:50   0.00   62.8    38    4.8   243     5.8   501.8    0.00 
 117    0:00   0.00   62.3    37    5.0   263     5.9   501.8    0.00 
 117    0:10   0.00   63.1    38    3.4   239     5.0   501.8    0.00 
 117    0:20   0.00   62.2    39    4.5   175     6.9   501.8    0.00 
 117    0:30   0.00   62.7    42    6.8   176    11.0   501.8    0.00 
 117    0:40   0.00   66.0    41    9.1   188    13.2   501.8    0.00 
 117    0:50   0.00   66.3    40    6.5   232     8.0   501.8    0.00 
 117    1:00   0.00   66.6    38    6.1   243     7.8   501.8    0.00 
 117    1:10   0.00   65.8    38    6.8   245     8.3   501.8    0.00 
 117    1:20   0.00   65.6    37    4.3   232     6.5   501.8    0.00 
 117    1:30   0.00   67.2    34    3.1   249     6.1   501.8    0.00 
 117    1:40   0.00   67.0    32    3.5   237     4.9   501.8    0.00 
 117    1:50   0.00   66.1    32    4.6   256     6.4   501.8    0.00 
 117    2:00   0.00   65.3    31    5.1   251     6.6   501.8    0.00 
 117    2:10   0.00   65.5    30    3.6   239     5.9   501.8    0.00 
 117    2:20   0.00   64.5    30    6.2   241    10.7   501.8    0.00 
 117    2:30   0.00   65.6    29    8.7   234    10.7   501.8    0.00 
 117    2:40   0.00   65.6    28    8.0   232     9.5   501.8    0.00 
 117    2:50   0.00   66.5    26    8.2   243    10.4   501.8    0.00 
 117    3:00   0.00   67.0    25    8.6   243    10.7   501.8    0.00 
 117    3:10   0.00   66.5    25    6.6   231     9.1   501.8    0.00 
 117    3:20   0.00   65.2    24    6.3   218     9.0   501.8    0.00 
 117    3:30   0.00   65.2    25    6.7   256     8.8   501.8    0.00 
 117    3:40   0.00   65.4    26    7.4   216    12.9   501.8    0.00 
 117    3:50   0.00   65.8    22    4.1   252     6.7   501.8    0.00 
 117    4:00   0.00   65.4    22    4.8   203     8.1   501.8    0.00 
 117    4:10   0.00   65.6    21    7.7   201    12.2   501.8    0.00 
 117    4:20   0.00   65.1    24    5.0   316    12.2   501.8    0.00 
 117    4:30   0.00   68.7    18    9.1   161    16.8   501.8    0.00 
 117    4:40   0.00   69.8    17    4.7   157     9.3   501.8    0.00 
 117    4:50   0.00   66.8    21    5.6   299    10.6   501.8    0.00 
 117    5:00   0.00   65.7    21    4.4   210     8.6   501.8    0.00 
 117    5:10   0.00   63.8    22    6.4   272    12.6   501.8    0.00 
 117    5:20   0.02   67.6    20    6.4   270    12.3   501.8    0.00 
 117    5:30   0.04   67.1    20    4.1   154     7.8   501.8    0.00 
 117    5:40   0.06   67.7    19    3.4   236     6.1   501.8    0.00 
 117    5:50   0.06   68.3    18    7.8   210    18.5   501.8    0.00 
 117    6:00   0.11   70.2    17    3.6   224     8.8   501.8    0.00 
 117    6:10   0.16   72.5    15    1.7   245     4.6   501.8    0.00 
 117    6:20   0.19   75.1    13    0.8   190     4.1   501.8    0.00 
 117    6:30   0.23   74.9    14    4.7   120     9.2   501.8    0.00 
 117    6:40   0.27   73.9    14    4.4   181     6.1   501.8    0.00 
 117    6:50   0.30   74.5    14    3.6   223     6.9   501.8    0.00 
 117    7:00   0.34   76.9    14    2.7   202     3.9   501.8    0.00 
 117    7:10   0.38   77.9    12    3.0   184     4.6   501.8    0.00 
 117    7:20   0.42   78.4    12    1.8   158     3.9   501.8    0.00 
 117    7:30   0.46   78.9    11    2.9   197     5.0   501.8    0.00 
 117    7:40   0.49   77.5    12    5.3    95     8.8   501.8    0.00 
 117    7:50   0.53   77.3    11    4.2    93     8.0   501.8    0.00 
 117    8:00   0.56   79.0    11    4.6    84     9.5   501.8    0.00 
 117    8:10   0.60   78.4    11    3.5    67     8.0   501.8    0.00 
 117    8:20   0.63   79.5    11    3.7    58     9.3   501.8    0.00 
 117    8:30   0.67   78.3    11    5.4   139     8.6   501.9    0.00 
 117    8:40   0.70   79.4    11    6.6   108    15.3   501.9    0.00 
 117    8:50   0.73   79.0    10    7.2    64    20.7   501.9    0.00 
 117    9:00   0.76   79.0    10    4.5    75    12.0   502.0    0.00 
 117    9:10   0.79   79.9    10    6.2   143    13.3   502.0    0.00 
 117    9:20   0.82   79.6    10    7.2   101    12.4   502.0    0.00 
 117    9:30   0.84   79.0    10    8.4   131    16.5   502.0    0.00 
 117    9:40   0.86   79.5    10    6.3   159    11.5   502.0    0.00 
 117    9:50   0.89   79.8    10    7.9   105    12.3   502.0    0.00 
 117   10:00   0.91   80.5    10    3.8   109    11.2   502.0    0.00 

Return to Anza Borrego Desert Research Center graphs page.


Western Regional Climate Center,wrcc@dri.edu